Time;durP1;ratioP1;P1;durP2;ratioP2;P2;SDS_P1;SDS_P2;PMS_P1;PMS_P2;Temp;Humidity;BMP_temperature;BMP_pressure;BME280_temperature;BME280_humidity;BME280_pressure;Samples;Min_cycle;Max_cycle;Signal;HPM_P1;HPM_P2
2022/08/03 00:01:33;;;;;;;2.67;2.05;;;22.60;99.90;;;;;;5092192;28;20247;-45
2022/08/03 00:03:59;;;;;;;2.05;1.83;;;22.60;99.90;;;;;;5092182;28;20230;-46
2022/08/03 00:06:25;;;;;;;6.93;2.30;;;22.60;99.90;;;;;;5092110;28;20629;-45
2022/08/03 00:08:50;;;;;;;7.50;2.45;;;22.40;99.90;;;;;;5091538;28;20173;-45
2022/08/03 00:11:16;;;;;;;10.70;3.60;;;22.30;99.90;;;;;;5091717;28;20221;-45
2022/08/03 00:13:42;;;;;;;7.80;2.10;;;22.30;99.90;;;;;;5092131;28;20302;-44
2022/08/03 00:16:09;;;;;;;4.40;2.33;;;22.20;99.90;;;;;;5091956;28;20177;-46
2022/08/03 00:18:35;;;;;;;4.63;2.28;;;22.20;99.90;;;;;;5092233;28;20173;-45
2022/08/03 00:21:02;;;;;;;8.35;2.53;;;22.30;99.90;;;;;;5091854;28;20207;-45
2022/08/03 00:23:28;;;;;;;11.32;2.97;;;22.20;99.90;;;;;;5092183;28;20169;-47
2022/08/03 00:25:54;;;;;;;4.60;2.20;;;22.20;99.90;;;;;;5092160;28;20169;-46
2022/08/03 00:28:19;;;;;;;6.03;2.50;;;22.10;99.90;;;;;;5091855;28;20168;-45
2022/08/03 00:30:45;;;;;;;3.42;2.20;;;22.00;99.90;;;;;;5092228;28;20227;-44
2022/08/03 00:33:10;;;;;;;4.25;2.28;;;22.20;99.90;;;;;;5091894;28;20190;-45
2022/08/03 00:35:36;;;;;;;7.82;2.50;;;22.20;99.90;;;;;;5093833;28;20169;-44
2022/08/03 00:38:02;;;;;;;3.78;2.35;;;22.20;99.90;;;;;;5095970;28;20161;-44
2022/08/03 00:40:27;;;;;;;9.73;2.17;;;22.20;99.90;;;;;;5095794;28;20180;-45
2022/08/03 00:43:02;;;;;;;8.20;2.90;;;22.10;99.90;;;;;;5096046;28;20165;-46
2022/08/03 00:45:39;;;;;;;4.80;1.98;;;22.20;99.90;;;;;;5095802;28;20272;-46
2022/08/03 00:48:09;;;;;;;6.47;2.20;;;22.10;99.90;;;;;;5095747;28;20168;-45
2022/08/03 00:50:38;;;;;;;9.02;2.38;;;22.10;99.90;;;;;;5095699;28;20162;-44
2022/08/03 00:53:06;;;;;;;10.40;3.22;;;22.00;99.90;;;;;;5095636;28;20177;-46
2022/08/03 00:55:32;;;;;;;5.30;2.58;;;22.10;99.90;;;;;;5095864;28;20636;-45
2022/08/03 00:58:00;;;;;;;6.47;2.30;;;22.00;99.90;;;;;;5095478;28;20751;-47
2022/08/03 01:00:27;;;;;;;6.15;3.13;;;21.90;99.90;;;;;;5095722;28;20172;-45
2022/08/03 01:02:53;;;;;;;10.75;2.85;;;22.00;99.90;;;;;;5077495;28;20761;-46
2022/08/03 01:05:22;;;;;;;5.15;2.53;;;22.00;99.90;;;;;;5095400;28;20252;-48
2022/08/03 01:08:12;;;;;;;4.40;2.47;;;21.90;99.90;;;;;;5095630;28;20180;-44
2022/08/03 01:11:12;;;;;;;5.28;2.20;;;22.00;99.90;;;;;;5095390;28;20190;-44
2022/08/03 01:13:49;;;;;;;8.63;3.40;;;21.90;99.90;;;;;;5091642;28;20253;-47
2022/08/03 01:16:24;;;;;;;4.05;2.50;;;21.90;99.90;;;;;;5095541;28;20161;-44
2022/08/03 01:19:23;;;;;;;7.95;2.75;;;21.80;99.90;;;;;;5095201;28;20625;-44
2022/08/03 01:22:01;;;;;;;7.75;2.78;;;21.80;99.90;;;;;;5094649;28;20244;-44
2022/08/03 01:24:41;;;;;;;12.43;3.08;;;21.80;99.90;;;;;;5094988;28;20180;-45
2022/08/03 01:27:27;;;;;;;5.63;2.75;;;21.80;99.90;;;;;;5094954;28;20235;-45
2022/08/03 01:30:12;;;;;;;6.50;3.05;;;21.80;99.90;;;;;;5095016;28;20240;-45
2022/08/03 01:32:49;;;;;;;9.02;2.65;;;21.70;99.90;;;;;;5095104;28;20165;-45
2022/08/03 01:35:20;;;;;;;11.00;2.88;;;21.60;99.90;;;;;;5095225;28;20226;-45
2022/08/03 01:38:02;;;;;;;6.50;2.50;;;21.60;99.90;;;;;;5095156;28;20164;-44
2022/08/03 01:40:31;;;;;;;9.20;2.90;;;21.60;99.90;;;;;;5094655;28;20169;-45
2022/08/03 01:42:59;;;;;;;7.82;2.75;;;21.70;99.90;;;;;;5094966;28;20231;-45
2022/08/03 01:45:26;;;;;;;6.55;2.33;;;21.60;99.90;;;;;;5094156;28;20678;-45
2022/08/03 01:47:53;;;;;;;9.98;2.83;;;21.60;99.90;;;;;;5094666;28;20169;-45
2022/08/03 01:50:23;;;;;;;6.60;2.80;;;21.50;99.90;;;;;;5094625;28;20161;-44
2022/08/03 01:52:50;;;;;;;9.32;2.72;;;21.50;99.90;;;;;;5094727;28;20176;-44
2022/08/03 01:55:19;;;;;;;6.75;2.33;;;21.50;99.90;;;;;;5094672;28;20190;-44
2022/08/03 01:57:46;;;;;;;6.57;3.00;;;21.40;99.90;;;;;;5094995;28;20203;-44
2022/08/03 02:00:13;;;;;;;10.45;3.28;;;21.40;99.90;;;;;;5094790;28;20530;-45
2022/08/03 02:02:41;;;;;;;9.85;3.05;;;21.40;99.90;;;;;;5094239;28;20664;-46
2022/08/03 02:05:09;;;;;;;6.28;2.92;;;21.40;99.90;;;;;;5094283;28;20169;-44
2022/08/03 02:07:36;;;;;;;9.65;3.20;;;21.40;99.90;;;;;;5094513;28;20234;-47
2022/08/03 02:10:04;;;;;;;9.35;3.53;;;21.30;99.90;;;;;;5094453;28;20176;-45
2022/08/03 02:12:33;;;;;;;7.40;3.20;;;21.40;99.90;;;;;;5094033;28;20209;-47
2022/08/03 02:15:00;;;;;;;9.30;3.63;;;21.40;99.90;;;;;;5094029;28;20206;-45
2022/08/03 02:17:28;;;;;;;9.98;3.15;;;23.30;99.90;;;;;;5093778;28;20197;-46
2022/08/03 02:19:57;;;;;;;6.65;3.33;;;21.30;99.90;;;;;;5094054;28;20164;-46
2022/08/03 02:22:23;;;;;;;9.82;3.15;;;21.30;99.90;;;;;;5094016;28;20270;-45
2022/08/03 02:24:50;;;;;;;6.45;3.22;;;21.20;99.90;;;;;;5093914;28;20176;-45
2022/08/03 02:27:21;;;;;;;4.88;3.10;;;21.20;99.90;;;;;;5093660;28;20232;-45
2022/08/03 02:29:51;;;;;;;7.20;3.55;;;21.20;99.90;;;;;;5093718;28;20165;-45
2022/08/03 02:32:21;;;;;;;7.80;3.72;;;21.30;99.90;;;;;;5093723;28;20153;-46
2022/08/03 02:34:51;;;;;;;8.02;3.67;;;21.20;99.90;;;;;;5093661;28;20707;-44
2022/08/03 02:37:18;;;;;;;4.90;3.47;;;21.10;99.90;;;;;;5093669;28;20698;-44
2022/08/03 02:39:46;;;;;;;5.45;3.30;;;21.20;99.90;;;;;;5094126;28;20174;-45
2022/08/03 02:42:14;;;;;;;6.22;3.05;;;21.10;99.90;;;;;;5093755;28;20571;-45
2022/08/03 02:44:46;;;;;;;6.57;3.38;;;21.10;99.90;;;;;;5093484;28;20162;-45
2022/08/03 02:47:14;;;;;;;5.90;3.22;;;21.10;99.90;;;;;;5093947;28;20181;-45
2022/08/03 02:49:40;;;;;;;7.05;2.97;;;21.10;99.90;;;;;;5093696;28;20170;-44
2022/08/03 02:52:09;;;;;;;6.93;3.03;;;21.10;99.90;;;;;;5093009;28;20172;-45
2022/08/03 02:54:37;;;;;;;10.55;3.72;;;21.00;99.90;;;;;;5093513;28;20180;-44
2022/08/03 02:57:04;;;;;;;5.45;3.13;;;21.10;99.90;;;;;;5074501;28;20167;-45
2022/08/03 02:59:31;;;;;;;3.08;2.63;;;21.00;99.90;;;;;;5092958;28;20176;-44
2022/08/03 03:01:59;;;;;;;6.18;3.00;;;21.00;99.90;;;;;;5091702;28;20201;-45
2022/08/03 03:04:27;;;;;;;5.80;2.50;;;21.00;99.90;;;;;;5093105;28;20239;-46
2022/08/03 03:06:53;;;;;;;4.80;2.90;;;20.90;99.90;;;;;;5093075;28;20204;-45
2022/08/03 03:09:19;;;;;;;5.38;2.78;;;20.80;99.90;;;;;;5092993;28;20165;-45
2022/08/03 03:11:47;;;;;;;6.95;3.17;;;20.70;99.90;;;;;;5093117;28;20591;-45
2022/08/03 03:14:14;;;;;;;10.88;3.28;;;20.70;99.90;;;;;;5093276;28;20162;-44
2022/08/03 03:16:41;;;;;;;6.07;3.10;;;20.70;99.90;;;;;;5075102;28;20544;-44
2022/08/03 03:19:09;;;;;;;4.50;2.60;;;20.70;99.90;;;;;;5093115;28;20228;-44
2022/08/03 03:21:36;;;;;;;6.07;3.17;;;20.70;99.90;;;;;;5092766;28;20220;-45
2022/08/03 03:24:02;;;;;;;5.57;3.10;;;20.70;99.90;;;;;;5092728;28;20201;-44
2022/08/03 03:26:28;;;;;;;5.45;3.17;;;20.70;99.90;;;;;;5093063;28;20166;-47
2022/08/03 03:28:54;;;;;;;7.75;3.22;;;20.70;99.90;;;;;;5092649;28;20165;-44
2022/08/03 03:31:20;;;;;;;5.43;3.60;;;20.70;99.90;;;;;;5092578;28;20205;-50
2022/08/03 03:33:56;;;;;;;5.40;3.38;;;20.70;99.90;;;;;;5092615;28;20204;-54
2022/08/03 03:36:22;;;;;;;5.47;3.50;;;20.70;99.90;;;;;;5092312;28;20616;-44
2022/08/03 03:38:47;;;;;;;8.70;2.95;;;20.60;99.90;;;;;;5092570;28;20248;-45
2022/08/03 03:41:13;;;;;;;8.38;3.08;;;20.70;99.90;;;;;;5092689;28;20196;-44
2022/08/03 03:43:39;;;;;;;6.43;3.00;;;20.50;99.90;;;;;;5092421;28;20169;-46
2022/08/03 03:46:05;;;;;;;7.15;3.30;;;20.50;99.90;;;;;;5092377;28;20639;-44
2022/08/03 03:48:31;;;;;;;6.63;3.10;;;20.50;99.90;;;;;;5092305;28;20260;-46
2022/08/03 03:50:58;;;;;;;6.32;3.10;;;20.50;99.90;;;;;;5092384;28;20279;-45
2022/08/03 03:53:23;;;;;;;5.22;3.20;;;20.40;99.90;;;;;;5091870;28;20680;-47
2022/08/03 03:55:51;;;;;;;6.65;3.25;;;20.50;99.90;;;;;;5092413;28;20173;-49
2022/08/03 03:58:17;;;;;;;5.13;3.17;;;20.50;99.90;;;;;;5092402;28;20248;-48
2022/08/03 04:00:44;;;;;;;5.93;2.88;;;20.40;99.90;;;;;;5092262;28;20592;-49
2022/08/03 04:03:11;;;;;;;6.97;2.92;;;20.40;99.90;;;;;;5091824;28;20706;-50
2022/08/03 04:11:24;;;;;;;6.35;3.33;;;20.30;99.90;;;;;;5092605;28;21038;-46
2022/08/03 04:14:04;;;;;;;3.80;2.75;;;20.20;99.90;;;;;;5092047;28;20165;-47
2022/08/03 04:16:33;;;;;;;6.32;3.28;;;20.20;99.90;;;;;;5092015;28;20165;-48
2022/08/03 04:19:09;;;;;;;6.88;3.63;;;20.20;99.90;;;;;;5091980;28;20555;-45
2022/08/03 04:21:39;;;;;;;4.35;3.22;;;20.40;99.90;;;;;;5092204;28;20219;-46
2022/08/03 04:24:07;;;;;;;7.30;3.20;;;20.30;99.90;;;;;;5091999;28;20158;-46
2022/08/03 04:26:37;;;;;;;3.28;2.80;;;20.30;99.90;;;;;;5092099;28;20177;-45
2022/08/03 04:29:04;;;;;;;5.20;2.70;;;20.40;99.90;;;;;;5092001;28;20244;-44
2022/08/03 04:31:31;;;;;;;6.30;3.05;;;20.40;99.90;;;;;;5091985;28;20165;-44
2022/08/03 04:33:57;;;;;;;6.22;3.00;;;20.30;99.90;;;;;;5091940;28;20168;-46
2022/08/03 04:36:26;;;;;;;5.80;2.70;;;20.30;99.90;;;;;;5091835;28;20256;-46
2022/08/03 04:39:00;;;;;;;6.43;3.15;;;20.40;99.90;;;;;;5091892;28;20175;-45
2022/08/03 04:41:27;;;;;;;8.52;3.22;;;20.40;99.90;;;;;;5091933;28;20200;-47
2022/08/03 04:43:57;;;;;;;7.32;3.00;;;20.40;99.90;;;;;;5091773;28;20167;-44
2022/08/03 04:46:27;;;;;;;6.78;4.30;;;20.40;99.90;;;;;;5091677;28;20185;-45
2022/08/03 04:48:53;;;;;;;5.70;3.42;;;20.50;99.90;;;;;;5091742;28;20253;-49
2022/08/03 04:51:19;;;;;;;7.32;3.13;;;20.60;99.90;;;;;;5091869;28;20166;-47
2022/08/03 04:53:45;;;;;;;4.00;3.17;;;20.60;99.90;;;;;;5091630;28;20165;-47
2022/08/03 04:56:11;;;;;;;7.20;3.10;;;20.70;99.90;;;;;;5092109;28;20173;-48
2022/08/03 04:58:36;;;;;;;7.90;3.22;;;20.70;99.90;;;;;;5091295;28;20183;-48
2022/08/03 05:01:02;;;;;;;5.25;3.13;;;20.70;99.90;;;;;;5091570;28;20194;-47
2022/08/03 05:03:27;;;;;;;4.70;3.00;;;20.80;99.90;;;;;;5091610;28;20236;-45
2022/08/03 05:05:54;;;;;;;7.15;2.92;;;20.60;99.90;;;;;;5091642;28;20565;-46
2022/08/03 05:08:20;;;;;;;4.13;2.63;;;20.70;99.90;;;;;;5091599;28;20166;-46
2022/08/03 05:10:46;;;;;;;4.20;2.97;;;20.70;99.90;;;;;;5091770;28;20172;-44
2022/08/03 05:13:12;;;;;;;10.38;3.58;;;20.70;99.90;;;;;;5091501;28;20606;-45
2022/08/03 05:15:38;;;;;;;4.22;3.30;;;20.80;99.90;;;;;;5091701;28;20169;-44
2022/08/03 05:18:05;;;;;;;7.22;3.53;;;20.80;99.90;;;;;;5091440;28;20197;-44
2022/08/03 05:20:30;;;;;;;6.97;3.15;;;20.90;99.90;;;;;;5091407;28;20165;-44
2022/08/03 05:22:57;;;;;;;6.63;3.60;;;21.00;99.90;;;;;;5095087;28;20184;-45
2022/08/03 05:25:22;;;;;;;4.32;3.10;;;21.20;99.90;;;;;;5095082;28;20193;-47
2022/08/03 05:27:48;;;;;;;4.13;3.17;;;21.20;99.90;;;;;;5095034;28;20230;-44
2022/08/03 05:30:14;;;;;;;7.07;3.25;;;21.10;99.90;;;;;;5095331;28;20628;-44
2022/08/03 05:32:40;;;;;;;5.43;3.03;;;21.30;99.90;;;;;;5095487;28;20165;-45
2022/08/03 05:35:06;;;;;;;9.43;3.42;;;21.30;99.90;;;;;;5094846;28;20166;-45
2022/08/03 05:37:32;;;;;;;4.80;3.10;;;21.40;99.90;;;;;;5095077;28;20177;-47
2022/08/03 05:39:57;;;;;;;4.72;3.22;;;21.50;99.90;;;;;;5094762;28;20652;-45
2022/08/03 05:42:23;;;;;;;5.40;3.08;;;21.50;99.90;;;;;;5094623;28;20251;-46
2022/08/03 05:44:48;;;;;;;9.07;2.63;;;21.80;99.90;;;;;;5094726;28;20161;-45
2022/08/03 05:47:14;;;;;;;3.97;2.97;;;21.90;99.90;;;;;;5094831;28;20172;-45
2022/08/03 05:49:40;;;;;;;3.40;2.90;;;22.00;99.90;;;;;;5094703;28;20218;-45
2022/08/03 05:52:05;;;;;;;8.30;3.00;;;22.10;99.90;;;;;;5094446;28;20161;-45
2022/08/03 05:54:31;;;;;;;6.18;2.65;;;22.20;99.90;;;;;;5094265;28;20176;-45
2022/08/03 05:56:56;;;;;;;3.33;2.75;;;22.30;99.90;;;;;;5094300;28;20153;-45
2022/08/03 05:59:22;;;;;;;5.03;2.75;;;22.50;99.90;;;;;;5094510;28;20176;-46
2022/08/03 06:01:47;;;;;;;5.40;2.58;;;22.50;99.90;;;;;;5094458;28;20571;-47
2022/08/03 06:04:13;;;;;;;3.80;2.60;;;22.60;99.90;;;;;;5094532;28;20176;-47
2022/08/03 06:06:39;;;;;;;3.30;2.25;;;22.80;99.90;;;;;;5094155;28;20180;-44
2022/08/03 06:09:04;;;;;;;6.03;2.53;;;22.80;99.90;;;;;;5094400;28;20180;-46
2022/08/03 06:11:30;;;;;;;4.05;2.63;;;22.90;99.90;;;;;;5093988;28;20338;-45
2022/08/03 06:13:57;;;;;;;6.43;2.60;;;23.00;99.90;;;;;;5094011;28;20605;-45
2022/08/03 06:16:22;;;;;;;3.22;2.47;;;23.10;99.90;;;;;;5094222;28;20169;-45
2022/08/03 06:18:48;;;;;;;6.72;2.90;;;23.10;99.90;;;;;;5094006;28;20157;-45
2022/08/03 06:21:14;;;;;;;5.07;3.17;;;23.20;99.90;;;;;;5094734;28;20193;-49
2022/08/03 06:23:42;;;;;;;8.77;2.67;;;23.40;99.90;;;;;;5094132;28;20205;-44
2022/08/03 06:26:07;;;;;;;6.30;2.13;;;23.20;99.90;;;;;;5094145;28;20276;-45
2022/08/03 06:28:33;;;;;;;6.65;2.80;;;23.30;99.90;;;;;;5093679;28;20648;-49
2022/08/03 06:30:59;;;;;;;4.03;2.72;;;23.50;99.90;;;;;;5093657;28;20170;-44
2022/08/03 06:33:25;;;;;;;3.63;2.20;;;23.60;99.90;;;;;;5093576;28;20164;-45
2022/08/03 06:35:51;;;;;;;5.43;2.85;;;23.70;99.90;;;;;;5093820;28;20223;-45
2022/08/03 06:38:16;;;;;;;5.18;2.92;;;23.80;99.90;;;;;;5093610;28;20568;-46
2022/08/03 06:40:42;;;;;;;4.32;2.83;;;23.90;99.90;;;;;;5093884;28;20248;-46
2022/08/03 06:43:07;;;;;;;5.03;2.90;;;24.00;99.90;;;;;;5093713;28;20708;-44
2022/08/03 06:45:34;;;;;;;4.07;2.75;;;24.10;99.90;;;;;;5093487;28;20165;-44
2022/08/03 06:48:01;;;;;;;6.72;3.17;;;24.20;99.90;;;;;;5093318;28;20539;-55
2022/08/03 06:50:27;;;;;;;3.70;2.53;;;24.20;99.90;;;;;;5093381;28;20705;-55
2022/08/03 06:52:53;;;;;;;6.47;3.08;;;24.20;99.90;;;;;;5093491;28;20166;-54
2022/08/03 06:55:18;;;;;;;4.95;3.05;;;24.30;99.90;;;;;;5093301;28;20172;-49
2022/08/03 06:57:44;;;;;;;3.58;2.33;;;24.40;99.90;;;;;;5093273;28;20179;-44
2022/08/03 07:00:10;;;;;;;4.03;2.53;;;24.50;99.90;;;;;;5093509;28;20177;-56
2022/08/03 07:02:36;;;;;;;6.82;3.13;;;24.50;99.90;;;;;;5093356;28;20291;-54
2022/08/03 07:05:03;;;;;;;4.60;2.92;;;24.60;99.90;;;;;;5074855;28;20307;-50
2022/08/03 07:07:28;;;;;;;5.00;2.53;;;24.90;99.90;;;;;;5093273;28;20219;-51
2022/08/03 07:09:54;;;;;;;10.57;2.50;;;25.00;99.90;;;;;;5092973;28;20165;-55
2022/08/03 07:12:19;;;;;;;7.47;2.50;;;24.90;99.90;;;;;;5092658;28;20221;-55
2022/08/03 07:14:45;;;;;;;4.38;2.03;;;24.90;99.90;;;;;;5092926;28;20175;-52
2022/08/03 07:17:10;;;;;;;7.53;2.30;;;25.00;99.90;;;;;;5093172;28;20187;-54
2022/08/03 07:19:36;;;;;;;7.75;2.92;;;25.10;99.90;;;;;;5092778;28;20163;-51
2022/08/03 07:22:02;;;;;;;7.25;2.53;;;25.10;99.90;;;;;;5092983;28;20668;-45
2022/08/03 07:24:28;;;;;;;5.00;2.67;;;25.30;99.90;;;;;;5092696;28;20172;-45
2022/08/03 07:26:54;;;;;;;7.55;2.75;;;25.40;99.90;;;;;;5092291;28;20636;-45
2022/08/03 07:29:19;;;;;;;5.43;2.30;;;25.50;99.90;;;;;;5074277;28;20176;-48
2022/08/03 07:31:45;;;;;;;3.35;2.03;;;25.70;99.90;;;;;;5092579;28;20161;-48
2022/08/03 07:34:10;;;;;;;2.83;2.13;;;25.80;99.90;;;;;;5092892;28;20218;-46
2022/08/03 07:36:36;;;;;;;3.08;2.20;;;25.90;99.90;;;;;;5092539;28;20557;-45
2022/08/03 07:39:03;;;;;;;3.72;2.25;;;25.90;99.90;;;;;;5092383;28;20642;-46
2022/08/03 07:41:28;;;;;;;3.47;2.08;;;25.80;99.90;;;;;;5092657;28;20219;-45
2022/08/03 07:43:54;;;;;;;3.63;1.90;;;25.70;99.90;;;;;;5092010;28;20244;-44
2022/08/03 07:46:20;;;;;;;3.53;2.05;;;25.80;99.90;;;;;;5092691;28;20184;-45
2022/08/03 07:48:45;;;;;;;6.97;2.40;;;26.10;99.90;;;;;;5092274;28;20641;-46
2022/08/03 07:51:11;;;;;;;2.67;1.77;;;26.20;99.90;;;;;;5092726;28;20160;-44
2022/08/03 07:53:36;;;;;;;3.80;2.20;;;26.40;99.90;;;;;;5092300;28;20173;-45
2022/08/03 07:56:02;;;;;;;2.35;1.80;;;26.30;99.90;;;;;;5092246;28;20157;-45
2022/08/03 07:58:27;;;;;;;6.03;2.13;;;26.60;99.90;;;;;;5092220;28;20527;-45
2022/08/03 08:00:53;;;;;;;6.40;2.17;;;26.70;99.90;;;;;;5092009;28;20188;-44
2022/08/03 08:03:20;;;;;;;4.72;2.10;;;26.90;99.90;;;;;;5092129;28;20176;-44
2022/08/03 08:05:46;;;;;;;5.18;2.20;;;26.90;99.90;;;;;;5091852;28;20161;-45
2022/08/03 08:08:12;;;;;;;6.15;2.20;;;26.90;99.90;;;;;;5092313;28;20695;-46
2022/08/03 08:10:38;;;;;;;5.05;2.03;;;27.10;99.90;;;;;;5091873;28;20206;-51
2022/08/03 08:13:04;;;;;;;2.10;1.90;;;27.30;99.90;;;;;;5091648;28;20217;-43
2022/08/03 08:15:30;;;;;;;3.42;1.90;;;27.20;99.90;;;;;;5094427;28;20168;-45
2022/08/03 08:17:58;;;;;;;4.97;2.00;;;27.40;99.90;;;;;;5102204;28;20256;-44
2022/08/03 08:20:31;;;;;;;2.75;1.80;;;27.30;99.90;;;;;;5100583;28;20164;-44
2022/08/03 08:22:59;;;;;;;8.35;2.42;;;27.50;99.90;;;;;;5101150;28;20702;-44
2022/08/03 08:25:25;;;;;;;4.95;2.35;;;27.60;99.90;;;;;;5091775;28;20647;-45
2022/08/03 08:27:51;;;;;;;2.67;1.83;;;27.50;99.90;;;;;;5091835;28;20246;-45
2022/08/03 08:30:19;;;;;;;3.22;1.88;;;27.80;99.90;;;;;;5091650;28;20581;-45
2022/08/03 08:32:45;;;;;;;2.30;1.67;;;27.90;99.90;;;;;;5091855;28;20171;-45
2022/08/03 08:35:11;;;;;;;5.70;1.90;;;28.10;99.90;;;;;;5092099;28;20169;-46
2022/08/03 08:37:37;;;;;;;4.97;1.92;;;28.10;99.90;;;;;;5091736;28;20169;-45
2022/08/03 08:40:04;;;;;;;3.60;2.40;;;28.10;99.90;;;;;;5091619;28;20533;-47
2022/08/03 08:42:31;;;;;;;4.18;1.90;;;28.30;99.90;;;;;;5091595;28;20208;-45
2022/08/03 08:44:56;;;;;;;4.10;1.92;;;28.50;99.90;;;;;;5091915;28;20180;-45
2022/08/03 08:47:29;;;;;;;2.08;1.75;;;28.60;99.90;;;;;;5091726;28;20636;-47
2022/08/03 08:49:57;;;;;;;3.80;1.70;;;28.50;99.90;;;;;;5091655;28;20157;-47
2022/08/03 08:52:29;;;;;;;3.70;2.00;;;28.50;99.90;;;;;;5091550;28;20165;-45
2022/08/03 08:55:02;;;;;;;3.65;1.90;;;28.50;99.90;;;;;;5091534;28;20200;-48
2022/08/03 08:57:43;;;;;;;3.60;1.83;;;28.50;99.90;;;;;;5094829;28;20163;-48
2022/08/03 09:00:12;;;;;;;1.90;1.65;;;28.80;99.90;;;;;;5095582;28;20161;-47
2022/08/03 09:02:41;;;;;;;6.53;2.13;;;28.90;99.90;;;;;;5095277;28;20251;-47
2022/08/03 09:05:10;;;;;;;5.18;2.00;;;28.90;99.90;;;;;;5095446;28;20187;-48
2022/08/03 09:07:36;;;;;;;4.10;1.90;;;28.90;99.90;;;;;;5095552;28;20259;-49
2022/08/03 09:10:02;;;;;;;5.85;1.55;;;28.90;99.90;;;;;;5095287;28;20205;-49
2022/08/03 09:12:27;;;;;;;5.65;2.20;;;29.00;99.90;;;;;;5094551;28;20598;-48
2022/08/03 09:14:54;;;;;;;3.28;1.90;;;29.00;99.90;;;;;;5095230;28;20620;-47
2022/08/03 09:17:19;;;;;;;5.68;2.20;;;29.00;99.90;;;;;;5095031;28;20176;-47
2022/08/03 09:20:04;;;;;;;3.33;1.70;;;29.30;99.90;;;;;;5094838;28;20616;-49
2022/08/03 09:22:32;;;;;;;3.75;1.85;;;29.30;99.90;;;;;;5095016;28;20208;-53
2022/08/03 09:25:06;;;;;;;3.38;1.90;;;29.40;99.90;;;;;;5094854;28;20513;-47
2022/08/03 09:27:45;;;;;;;3.78;1.83;;;29.60;99.90;;;;;;5094714;28;20184;-45
2022/08/03 09:30:13;;;;;;;2.10;1.77;;;29.60;99.90;;;;;;5095225;28;20647;-48
2022/08/03 09:32:39;;;;;;;2.45;1.85;;;29.70;99.90;;;;;;5095486;28;20169;-47
2022/08/03 09:35:05;;;;;;;6.00;2.10;;;29.70;99.90;;;;;;5094846;28;20172;-47
2022/08/03 09:37:30;;;;;;;4.35;1.73;;;29.60;99.90;;;;;;5094803;28;20171;-46
2022/08/03 09:39:56;;;;;;;2.42;2.22;;;29.60;99.90;;;;;;5094715;28;20670;-49
2022/08/03 09:42:22;;;;;;;1.70;1.60;;;29.70;99.90;;;;;;5076450;28;20204;-47
2022/08/03 09:44:50;;;;;;;5.13;1.92;;;29.90;99.90;;;;;;5094844;28;20173;-48
2022/08/03 09:47:33;;;;;;;5.22;1.60;;;29.90;99.90;;;;;;5094495;28;20189;-47
2022/08/03 09:50:00;;;;;;;5.32;1.80;;;30.10;99.90;;;;;;5094288;28;20689;-48
2022/08/03 09:52:31;;;;;;;2.75;1.80;;;30.20;99.90;;;;;;5094741;28;20183;-46
2022/08/03 09:54:58;;;;;;;2.47;1.50;;;30.50;99.90;;;;;;5094839;28;20176;-46
2022/08/03 09:57:25;;;;;;;2.42;1.63;;;30.50;99.90;;;;;;5094303;28;20165;-48
2022/08/03 09:59:57;;;;;;;3.20;1.90;;;30.50;99.90;;;;;;5094064;28;20210;-49
2022/08/03 10:02:24;;;;;;;2.88;1.60;;;30.50;99.90;;;;;;5094615;28;20248;-47
2022/08/03 10:04:51;;;;;;;5.22;1.67;;;30.20;99.90;;;;;;5093543;28;20666;-49
2022/08/03 10:07:21;;;;;;;4.55;1.70;;;30.10;99.90;;;;;;5093190;28;20173;-47
2022/08/03 10:10:01;;;;;;;3.78;1.52;;;30.10;99.90;;;;;;5092433;28;20204;-48
2022/08/03 10:12:27;;;;;;;1.65;1.48;;;30.10;99.90;;;;;;5093448;28;20212;-48
2022/08/03 10:14:54;;;;;;;3.55;1.92;;;30.10;99.90;;;;;;5093525;28;20169;-49
2022/08/03 10:17:21;;;;;;;2.65;1.60;;;30.30;99.90;;;;;;5093641;28;20164;-49
2022/08/03 10:19:48;;;;;;;1.63;1.52;;;30.40;99.90;;;;;;5093451;28;20259;-49
2022/08/03 10:22:26;;;;;;;2.63;1.67;;;30.30;99.90;;;;;;5093434;28;20207;-47
2022/08/03 10:25:05;;;;;;;1.95;1.75;;;30.50;99.90;;;;;;5093292;28;20169;-48
2022/08/03 10:27:36;;;;;;;3.05;1.48;;;31.00;99.90;;;;;;5093560;28;20169;-48
2022/08/03 10:30:06;;;;;;;5.25;1.55;;;30.80;99.90;;;;;;5092984;28;20247;-50
2022/08/03 10:32:47;;;;;;;1.50;1.40;;;30.80;99.90;;;;;;5093336;28;20172;-49
2022/08/03 10:35:16;;;;;;;1.98;1.40;;;30.80;99.90;;;;;;5093665;28;20248;-49
2022/08/03 10:37:50;;;;;;;6.07;1.30;;;31.00;99.90;;;;;;5075171;28;20172;-49
2022/08/03 10:40:19;;;;;;;3.08;1.50;;;31.00;99.90;;;;;;5093160;28;20192;-49
2022/08/03 10:42:46;;;;;;;1.30;1.20;;;31.00;99.90;;;;;;5093127;28;20551;-47
2022/08/03 10:45:22;;;;;;;1.50;1.40;;;31.00;99.90;;;;;;5093467;28;20318;-47
2022/08/03 10:47:50;;;;;;;1.88;1.48;;;31.30;99.90;;;;;;5092794;28;20635;-47
2022/08/03 10:50:16;;;;;;;2.33;1.75;;;31.30;99.90;;;;;;5092905;28;20213;-48
2022/08/03 10:52:54;;;;;;;3.78;1.80;;;31.00;99.90;;;;;;5093609;28;20217;-48
2022/08/03 10:58:37;;;;;;;3.58;1.52;;;31.40;99.90;;;;;;5093042;28;20218;-49
2022/08/03 11:01:08;;;;;;;2.30;1.55;;;31.50;99.90;;;;;;5092983;28;20271;-47
2022/08/03 11:03:53;;;;;;;2.10;1.63;;;31.60;99.90;;;;;;5092750;28;20191;-50
2022/08/03 11:06:21;;;;;;;3.72;1.98;;;31.60;99.90;;;;;;5093033;28;20200;-48
2022/08/03 11:08:48;;;;;;;2.28;1.33;;;31.40;99.90;;;;;;5092780;28;20219;-47
2022/08/03 11:11:16;;;;;;;3.45;1.35;;;31.40;99.90;;;;;;5073839;28;20234;-49
2022/08/03 11:14:02;;;;;;;2.67;1.60;;;31.20;99.90;;;;;;5093204;28;20207;-49
2022/08/03 11:16:28;;;;;;;1.50;1.40;;;31.10;99.90;;;;;;5092714;28;20645;-49
2022/08/03 11:19:05;;;;;;;4.95;1.40;;;31.30;99.90;;;;;;5091948;28;20236;-48
2022/08/03 11:21:52;;;;;;;2.22;1.58;;;31.60;99.90;;;;;;5092659;28;20208;-47
2022/08/03 11:24:56;;;;;;;2.50;1.52;;;31.70;99.90;;;;;;5092665;28;20156;-51
2022/08/03 11:27:32;;;;;;;1.80;1.58;;;31.90;99.90;;;;;;5051591;28;20188;-49
2022/08/03 11:30:03;;;;;;;2.50;1.48;;;31.90;99.90;;;;;;5092584;28;20157;-49
2022/08/03 11:32:38;;;;;;;1.88;1.48;;;32.10;99.90;;;;;;5092744;28;20173;-48
2022/08/03 11:35:12;;;;;;;2.17;1.80;;;32.20;99.80;;;;;;5092659;28;20191;-50
2022/08/03 11:38:01;;;;;;;4.38;2.35;;;32.20;99.80;;;;;;5092636;28;20169;-51
2022/08/03 11:40:34;;;;;;;2.92;1.70;;;32.10;99.50;;;;;;5080311;28;20634;-50
2022/08/03 11:43:00;;;;;;;2.75;1.40;;;32.50;99.90;;;;;;5092477;28;20219;-48
2022/08/03 11:45:26;;;;;;;2.30;1.95;;;32.30;99.90;;;;;;5092331;28;20161;-51
2022/08/03 11:47:54;;;;;;;4.03;1.52;;;32.70;99.30;;;;;;5074306;28;20647;-53
2022/08/03 11:50:21;;;;;;;2.50;1.63;;;32.30;99.10;;;;;;5092316;28;20156;-48
2022/08/03 11:52:47;;;;;;;4.38;1.73;;;32.00;99.10;;;;;;5092294;28;20206;-47
2022/08/03 11:55:15;;;;;;;1.60;1.42;;;31.80;99.00;;;;;;5092087;28;20657;-49
2022/08/03 11:57:41;;;;;;;1.80;1.30;;;31.90;98.10;;;;;;5092850;28;20196;-51
2022/08/03 12:00:30;;;;;;;3.42;1.40;;;32.20;99.40;;;;;;5092175;28;20636;-47
2022/08/03 12:03:08;;;;;;;1.58;1.30;;;32.40;99.40;;;;;;5092343;28;20611;-48
2022/08/03 12:05:48;;;;;;;2.97;1.60;;;32.60;97.70;;;;;;5092388;28;20169;-47
2022/08/03 12:08:16;;;;;;;2.63;1.75;;;32.90;97.40;;;;;;5092391;28;20523;-48
2022/08/03 12:10:49;;;;;;;2.00;1.48;;;33.00;97.10;;;;;;5092562;28;20179;-49
2022/08/03 12:13:16;;;;;;;5.05;2.03;;;33.00;97.00;;;;;;5091878;28;20220;-50
2022/08/03 12:15:42;;;;;;;4.55;1.45;;;32.90;96.30;;;;;;5092763;28;20188;-47
2022/08/03 12:18:16;;;;;;;2.03;1.70;;;33.00;95.80;;;;;;5092006;28;20553;-47
2022/08/03 12:20:42;;;;;;;3.72;1.92;;;33.00;96.20;;;;;;5092324;28;20160;-47
2022/08/03 12:23:08;;;;;;;2.78;1.48;;;33.10;95.20;;;;;;5091940;28;20181;-49
2022/08/03 12:25:36;;;;;;;5.07;1.48;;;33.10;95.50;;;;;;5091914;28;20187;-49
2022/08/03 12:28:07;;;;;;;2.78;1.60;;;33.20;95.40;;;;;;5092022;28;20247;-48
2022/08/03 12:30:33;;;;;;;4.47;1.75;;;33.30;95.60;;;;;;5093936;28;20160;-49
2022/08/03 12:33:22;;;;;;;2.90;1.80;;;33.10;95.40;;;;;;5096218;28;20248;-50
2022/08/03 12:35:50;;;;;;;3.08;1.80;;;33.10;94.60;;;;;;5096366;28;20176;-48
2022/08/03 12:38:22;;;;;;;1.65;1.55;;;33.30;94.50;;;;;;5096003;28;20157;-48
2022/08/03 12:41:07;;;;;;;5.13;1.60;;;33.20;94.10;;;;;;5095835;28;20640;-48
2022/08/03 12:43:33;;;;;;;3.88;1.40;;;33.20;94.50;;;;;;5096146;28;20183;-48
2022/08/03 12:46:10;;;;;;;2.67;1.55;;;33.20;93.50;;;;;;5095796;28;20164;-48
2022/08/03 12:48:36;;;;;;;1.60;1.50;;;33.30;93.90;;;;;;5095819;28;20165;-49
2022/08/03 12:51:09;;;;;;;2.15;1.60;;;33.30;93.80;;;;;;5096015;28;20226;-51
2022/08/03 12:53:35;;;;;;;3.75;1.98;;;33.40;94.10;;;;;;5095672;28;20526;-48
2022/08/03 12:56:05;;;;;;;3.38;1.60;;;33.40;93.70;;;;;;5096007;28;20164;-48
2022/08/03 12:58:33;;;;;;;5.78;2.40;;;33.50;93.40;;;;;;5095633;28;20663;-47
2022/08/03 13:00:59;;;;;;;3.85;1.58;;;33.60;92.90;;;;;;5095854;28;20183;-46
2022/08/03 13:03:24;;;;;;;2.85;1.60;;;33.50;93.30;;;;;;5095816;28;20177;-47